Ismay, Montana
Current Conditions -  °F | °C
As of 8:51 PM on Thursday 27 Nov 2014 (Local Time) from KBHK Reporting Station
Broken Clouds Broken Clouds  
Wind Chill: 34°   Ceiling: 10000
Heat Index: 34°   Visibility: 10mi
Dew Point: 30°   Wind: 0mph
Humidity: 85%   Direction: NA
Pressure: 29.76"   Gusts: NA
Location:  46.5°N, 104.79°W
Report Text: KBHK 280351Z AUTO 00000KT 10SM BKN100 01/M01 A2976 RMK AO2 SLP107 T00111011
Loading
Personal Weather Stations






























Interactive Weather Map New forecast layout! Learn more

10-Day Weather Forecast

Advertisements
Track Severe Weather on mobile